sensor_id;sensor_type;location;lat;lon;timestamp;pressure;altitude;pressure_sealevel;temperature;humidity
19114;BME280;9689;51.052;13.772;2023-07-02T00:00:11;99305.59;;;19.04;69.14
19114;BME280;9689;51.052;13.772;2023-07-02T00:05:12;99306.66;;;19.02;68.86
19114;BME280;9689;51.052;13.772;2023-07-02T00:10:14;99302.13;;;19.04;69.03
19114;BME280;9689;51.052;13.772;2023-07-02T00:15:14;99301.91;;;19.07;68.86
19114;BME280;9689;51.052;13.772;2023-07-02T00:20:15;99302.44;;;19.12;68.57
19114;BME280;9689;51.052;13.772;2023-07-02T00:25:18;99295.25;;;19.01;69.05
19114;BME280;9689;51.052;13.772;2023-07-02T00:30:19;99304.66;;;19.05;68.98
19114;BME280;9689;51.052;13.772;2023-07-02T00:35:19;99300.00;;;19.09;68.77
19114;BME280;9689;51.052;13.772;2023-07-02T00:40:21;99300.81;;;19.09;68.86
19114;BME280;9689;51.052;13.772;2023-07-02T00:45:22;99306.22;;;19.08;68.74
19114;BME280;9689;51.052;13.772;2023-07-02T00:50:27;99310.13;;;19.02;69.27
19114;BME280;9689;51.052;13.772;2023-07-02T00:55:29;99305.72;;;19.03;69.33
19114;BME280;9689;51.052;13.772;2023-07-02T01:00:30;99299.59;;;18.89;69.82
19114;BME280;9689;51.052;13.772;2023-07-02T01:05:31;99305.72;;;19.03;69.08
19114;BME280;9689;51.052;13.772;2023-07-02T01:10:36;99308.56;;;19.00;69.67
19114;BME280;9689;51.052;13.772;2023-07-02T01:15:37;99302.66;;;18.96;69.74
19114;BME280;9689;51.052;13.772;2023-07-02T01:20:41;99296.84;;;19.04;69.39
19114;BME280;9689;51.052;13.772;2023-07-02T01:25:41;99304.47;;;18.96;69.75
19114;BME280;9689;51.052;13.772;2023-07-02T01:30:44;99293.06;;;18.95;69.95
19114;BME280;9689;51.052;13.772;2023-07-02T01:35:47;99284.06;;;18.98;70.00
19114;BME280;9689;51.052;13.772;2023-07-02T01:40:48;99294.09;;;18.92;70.15
19114;BME280;9689;51.052;13.772;2023-07-02T01:45:49;99300.25;;;18.80;70.63
19114;BME280;9689;51.052;13.772;2023-07-02T01:50:51;99289.56;;;18.95;69.99
19114;BME280;9689;51.052;13.772;2023-07-02T01:55:51;99290.84;;;18.89;70.66
19114;BME280;9689;51.052;13.772;2023-07-02T02:00:52;99300.69;;;18.87;70.58
19114;BME280;9689;51.052;13.772;2023-07-02T02:05:54;99301.06;;;18.93;70.27
19114;BME280;9689;51.052;13.772;2023-07-02T02:10:55;99307.63;;;18.88;71.28
19114;BME280;9689;51.052;13.772;2023-07-02T02:15:56;99300.78;;;18.73;72.40
19114;BME280;9689;51.052;13.772;2023-07-02T02:20:58;99304.56;;;18.56;73.22
19114;BME280;9689;51.052;13.772;2023-07-02T02:25:59;99315.44;;;18.51;73.91
19114;BME280;9689;51.052;13.772;2023-07-02T02:31:00;99316.88;;;18.30;75.18
19114;BME280;9689;51.052;13.772;2023-07-02T02:36:04;99318.91;;;18.39;75.63
19114;BME280;9689;51.052;13.772;2023-07-02T02:41:04;99319.31;;;18.33;75.89
19114;BME280;9689;51.052;13.772;2023-07-02T02:46:12;99317.72;;;18.30;75.95
19114;BME280;9689;51.052;13.772;2023-07-02T02:51:14;99318.28;;;18.35;75.81
19114;BME280;9689;51.052;13.772;2023-07-02T02:56:15;99320.47;;;18.42;75.24
19114;BME280;9689;51.052;13.772;2023-07-02T03:01:15;99321.13;;;18.45;75.11
19114;BME280;9689;51.052;13.772;2023-07-02T03:06:18;99328.94;;;18.34;75.73
19114;BME280;9689;51.052;13.772;2023-07-02T03:11:18;99327.53;;;18.41;75.13
19114;BME280;9689;51.052;13.772;2023-07-02T03:16:19;99318.50;;;18.45;75.37
19114;BME280;9689;51.052;13.772;2023-07-02T03:21:22;99333.88;;;18.39;75.58
19114;BME280;9689;51.052;13.772;2023-07-02T03:26:23;99327.53;;;18.41;74.77
19114;BME280;9689;51.052;13.772;2023-07-02T03:31:24;99337.69;;;18.47;74.99
19114;BME280;9689;51.052;13.772;2023-07-02T03:36:26;99328.72;;;18.37;74.89
19114;BME280;9689;51.052;13.772;2023-07-02T03:41:27;99340.09;;;18.38;75.46
19114;BME280;9689;51.052;13.772;2023-07-02T03:46:28;99336.00;;;18.46;74.41
19114;BME280;9689;51.052;13.772;2023-07-02T03:51:32;99344.44;;;18.39;74.93
19114;BME280;9689;51.052;13.772;2023-07-02T03:56:32;99357.47;;;18.15;76.67
19114;BME280;9689;51.052;13.772;2023-07-02T04:01:33;99367.19;;;17.87;79.16
19114;BME280;9689;51.052;13.772;2023-07-02T04:06:35;99364.50;;;17.60;80.97
19114;BME280;9689;51.052;13.772;2023-07-02T04:11:36;99369.16;;;17.42;82.23
19114;BME280;9689;51.052;13.772;2023-07-02T04:16:36;99381.47;;;17.42;82.89
19114;BME280;9689;51.052;13.772;2023-07-02T04:21:39;99386.53;;;17.45;82.53
19114;BME280;9689;51.052;13.772;2023-07-02T04:26:39;99399.16;;;17.40;80.43
19114;BME280;9689;51.052;13.772;2023-07-02T04:32:02;99404.25;;;17.43;77.60
19114;BME280;9689;51.052;13.772;2023-07-02T04:37:05;99410.06;;;17.19;78.21
19114;BME280;9689;51.052;13.772;2023-07-02T04:42:05;99414.03;;;16.98;78.93
19114;BME280;9689;51.052;13.772;2023-07-02T04:47:07;99414.22;;;16.95;79.81
19114;BME280;9689;51.052;13.772;2023-07-02T04:52:09;99426.34;;;16.98;80.38
19114;BME280;9689;51.052;13.772;2023-07-02T04:57:10;99428.78;;;17.01;80.84
19114;BME280;9689;51.052;13.772;2023-07-02T05:02:11;99435.34;;;16.93;81.07
19114;BME280;9689;51.052;13.772;2023-07-02T05:07:13;99440.91;;;16.89;82.46
19114;BME280;9689;51.052;13.772;2023-07-02T05:12:13;99445.50;;;16.55;84.25
19114;BME280;9689;51.052;13.772;2023-07-02T05:17:14;99453.56;;;16.52;85.61
19114;BME280;9689;51.052;13.772;2023-07-02T05:22:16;99462.00;;;16.57;86.03
19114;BME280;9689;51.052;13.772;2023-07-02T05:27:18;99460.91;;;16.77;85.82
19114;BME280;9689;51.052;13.772;2023-07-02T05:32:19;99458.78;;;16.98;85.17
19114;BME280;9689;51.052;13.772;2023-07-02T05:37:21;99463.13;;;17.13;84.98
19114;BME280;9689;51.052;13.772;2023-07-02T05:42:22;99476.19;;;17.43;85.15
19114;BME280;9689;51.052;13.772;2023-07-02T05:47:22;99478.94;;;17.85;83.15
19114;BME280;9689;51.052;13.772;2023-07-02T05:52:24;99484.94;;;18.01;80.45
19114;BME280;9689;51.052;13.772;2023-07-02T05:57:25;99481.38;;;18.29;76.65
19114;BME280;9689;51.052;13.772;2023-07-02T06:02:26;99481.59;;;18.39;74.60
19114;BME280;9689;51.052;13.772;2023-07-02T06:07:28;99490.00;;;18.31;73.04
19114;BME280;9689;51.052;13.772;2023-07-02T06:12:29;99482.59;;;18.23;74.49
19114;BME280;9689;51.052;13.772;2023-07-02T06:17:29;99487.50;;;18.15;75.32
19114;BME280;9689;51.052;13.772;2023-07-02T06:22:36;99496.94;;;18.19;73.24
19114;BME280;9689;51.052;13.772;2023-07-02T06:27:38;99489.38;;;18.27;74.46
19114;BME280;9689;51.052;13.772;2023-07-02T06:32:39;99494.75;;;18.53;72.60
19114;BME280;9689;51.052;13.772;2023-07-02T06:37:41;99488.28;;;18.71;71.86
19114;BME280;9689;51.052;13.772;2023-07-02T06:42:42;99498.38;;;19.04;71.03
19114;BME280;9689;51.052;13.772;2023-07-02T06:47:43;99507.78;;;18.96;71.61
19114;BME280;9689;51.052;13.772;2023-07-02T06:52:45;99511.81;;;18.74;72.44
19114;BME280;9689;51.052;13.772;2023-07-02T06:57:45;99514.47;;;18.74;71.83
19114;BME280;9689;51.052;13.772;2023-07-02T07:02:46;99503.34;;;19.09;69.77
19114;BME280;9689;51.052;13.772;2023-07-02T07:07:49;99491.94;;;19.08;69.05
19114;BME280;9689;51.052;13.772;2023-07-02T07:12:50;99499.75;;;19.35;66.86
19114;BME280;9689;51.052;13.772;2023-07-02T07:17:51;99502.41;;;19.35;67.06
19114;BME280;9689;51.052;13.772;2023-07-02T07:22:53;99500.19;;;19.67;63.85
19114;BME280;9689;51.052;13.772;2023-07-02T07:27:54;99504.22;;;20.10;62.38
19114;BME280;9689;51.052;13.772;2023-07-02T07:32:57;99495.28;;;19.87;61.22
19114;BME280;9689;51.052;13.772;2023-07-02T07:37:59;99485.91;;;19.44;63.45
19114;BME280;9689;51.052;13.772;2023-07-02T07:43:00;99479.91;;;19.30;64.95
19114;BME280;9689;51.052;13.772;2023-07-02T07:48:00;99490.16;;;19.60;64.21
19114;BME280;9689;51.052;13.772;2023-07-02T07:53:02;99491.16;;;19.95;61.08
19114;BME280;9689;51.052;13.772;2023-07-02T07:58:03;99496.25;;;19.86;60.13
19114;BME280;9689;51.052;13.772;2023-07-02T08:03:06;99471.00;;;20.05;57.61
19114;BME280;9689;51.052;13.772;2023-07-02T08:08:08;99488.38;;;20.57;55.78
19114;BME280;9689;51.052;13.772;2023-07-02T08:13:09;99489.34;;;20.56;55.50
19114;BME280;9689;51.052;13.772;2023-07-02T08:18:10;99481.13;;;20.72;51.99
19114;BME280;9689;51.052;13.772;2023-07-02T08:23:15;99486.72;;;20.92;52.55
19114;BME280;9689;51.052;13.772;2023-07-02T08:28:16;99489.78;;;20.74;52.56
19114;BME280;9689;51.052;13.772;2023-07-02T08:33:16;99491.84;;;20.82;52.88
19114;BME280;9689;51.052;13.772;2023-07-02T08:38:18;99491.94;;;21.04;52.24
19114;BME280;9689;51.052;13.772;2023-07-02T08:43:21;99499.03;;;20.69;53.38
19114;BME280;9689;51.052;13.772;2023-07-02T08:48:22;99504.75;;;20.86;52.75
19114;BME280;9689;51.052;13.772;2023-07-02T08:53:25;99509.09;;;20.52;51.17
19114;BME280;9689;51.052;13.772;2023-07-02T08:58:29;99492.28;;;20.65;50.75
19114;BME280;9689;51.052;13.772;2023-07-02T09:03:30;99503.13;;;20.73;46.38
19114;BME280;9689;51.052;13.772;2023-07-02T09:08:32;99508.38;;;20.85;44.92
19114;BME280;9689;51.052;13.772;2023-07-02T09:13:42;99505.75;;;20.97;44.77
19114;BME280;9689;51.052;13.772;2023-07-02T09:18:43;99492.91;;;21.03;43.90
19114;BME280;9689;51.052;13.772;2023-07-02T09:23:47;99498.69;;;21.20;43.29
19114;BME280;9689;51.052;13.772;2023-07-02T09:28:48;99504.66;;;21.34;43.54
19114;BME280;9689;51.052;13.772;2023-07-02T09:33:49;99501.16;;;21.79;43.53
19114;BME280;9689;51.052;13.772;2023-07-02T09:38:51;99494.31;;;21.98;40.97
19114;BME280;9689;51.052;13.772;2023-07-02T09:43:52;99504.06;;;22.09;40.86
19114;BME280;9689;51.052;13.772;2023-07-02T09:48:53;99501.97;;;22.35;40.66
19114;BME280;9689;51.052;13.772;2023-07-02T09:53:56;99507.06;;;22.05;41.99
19114;BME280;9689;51.052;13.772;2023-07-02T09:58:56;99497.56;;;21.91;42.97
19114;BME280;9689;51.052;13.772;2023-07-02T10:03:57;99498.38;;;22.25;43.13
19114;BME280;9689;51.052;13.772;2023-07-02T10:09:00;99497.16;;;22.29;42.71
19114;BME280;9689;51.052;13.772;2023-07-02T10:14:00;99494.44;;;22.40;42.05
19114;BME280;9689;51.052;13.772;2023-07-02T10:19:11;99502.03;;;22.88;40.20
19114;BME280;9689;51.052;13.772;2023-07-02T10:24:15;99507.00;;;22.38;42.08
19114;BME280;9689;51.052;13.772;2023-07-02T10:29:18;99502.81;;;22.68;41.33
19114;BME280;9689;51.052;13.772;2023-07-02T10:34:30;99498.66;;;23.07;41.16
19114;BME280;9689;51.052;13.772;2023-07-02T10:39:34;99500.69;;;23.15;39.53
19114;BME280;9689;51.052;13.772;2023-07-02T10:44:47;99498.16;;;23.44;38.63
19114;BME280;9689;51.052;13.772;2023-07-02T10:49:48;99491.44;;;23.19;39.22
19114;BME280;9689;51.052;13.772;2023-07-02T10:54:50;99493.06;;;23.10;39.63
19114;BME280;9689;51.052;13.772;2023-07-02T10:59:51;99484.06;;;23.53;37.76
19114;BME280;9689;51.052;13.772;2023-07-02T11:04:51;99486.69;;;22.80;39.11
19114;BME280;9689;51.052;13.772;2023-07-02T11:09:54;99489.00;;;22.74;38.63
19114;BME280;9689;51.052;13.772;2023-07-02T11:14:59;99488.81;;;22.98;38.38
19114;BME280;9689;51.052;13.772;2023-07-02T11:20:07;99497.81;;;23.06;38.49
19114;BME280;9689;51.052;13.772;2023-07-02T11:25:12;99478.06;;;23.20;37.73
19114;BME280;9689;51.052;13.772;2023-07-02T11:30:13;99475.72;;;23.57;36.84
19114;BME280;9689;51.052;13.772;2023-07-02T11:35:14;99474.31;;;23.84;35.95
19114;BME280;9689;51.052;13.772;2023-07-02T11:40:18;99472.19;;;23.87;36.38
19114;BME280;9689;51.052;13.772;2023-07-02T11:45:19;99473.28;;;24.15;35.74
19114;BME280;9689;51.052;13.772;2023-07-02T11:50:20;99475.50;;;23.70;37.53
19114;BME280;9689;51.052;13.772;2023-07-02T11:55:27;99490.78;;;23.47;38.08
19114;BME280;9689;51.052;13.772;2023-07-02T12:00:27;99492.19;;;23.51;38.54
19114;BME280;9689;51.052;13.772;2023-07-02T12:05:28;99501.09;;;23.40;38.87
19114;BME280;9689;51.052;13.772;2023-07-02T12:10:30;99496.22;;;24.07;37.59
19114;BME280;9689;51.052;13.772;2023-07-02T12:15:31;99493.00;;;24.22;36.48
19114;BME280;9689;51.052;13.772;2023-07-02T12:20:31;99493.00;;;24.13;36.38
19114;BME280;9689;51.052;13.772;2023-07-02T12:25:33;99486.09;;;24.60;33.85
19114;BME280;9689;51.052;13.772;2023-07-02T12:30:34;99493.50;;;24.95;33.60
19114;BME280;9689;51.052;13.772;2023-07-02T12:35:35;99485.31;;;25.26;34.88
19114;BME280;9689;51.052;13.772;2023-07-02T12:40:37;99488.63;;;24.62;36.06
19114;BME280;9689;51.052;13.772;2023-07-02T12:45:38;99498.06;;;24.16;36.45
19114;BME280;9689;51.052;13.772;2023-07-02T12:50:38;99505.91;;;24.17;37.49
19114;BME280;9689;51.052;13.772;2023-07-02T12:55:41;99500.75;;;23.76;36.27
19114;BME280;9689;51.052;13.772;2023-07-02T13:00:41;99517.03;;;23.61;36.31
19114;BME280;9689;51.052;13.772;2023-07-02T13:05:42;99504.13;;;23.87;35.76
19114;BME280;9689;51.052;13.772;2023-07-02T13:10:44;99515.22;;;23.92;33.32
19114;BME280;9689;51.052;13.772;2023-07-02T13:15:45;99528.06;;;23.57;35.19
19114;BME280;9689;51.052;13.772;2023-07-02T13:20:46;99538.78;;;23.25;39.59
19114;BME280;9689;51.052;13.772;2023-07-02T13:25:49;99543.09;;;23.37;40.74
19114;BME280;9689;51.052;13.772;2023-07-02T13:30:50;99546.44;;;23.81;39.53
19114;BME280;9689;51.052;13.772;2023-07-02T13:35:52;99538.09;;;24.05;39.38
19114;BME280;9689;51.052;13.772;2023-07-02T13:40:54;99540.81;;;23.84;40.09
19114;BME280;9689;51.052;13.772;2023-07-02T13:45:55;99546.53;;;23.79;39.89
19114;BME280;9689;51.052;13.772;2023-07-02T13:50:55;99562.22;;;23.73;39.88
19114;BME280;9689;51.052;13.772;2023-07-02T13:55:58;99556.25;;;24.30;37.95
19114;BME280;9689;51.052;13.772;2023-07-02T14:01:00;99548.47;;;23.98;38.56
19114;BME280;9689;51.052;13.772;2023-07-02T14:06:01;99546.72;;;23.87;38.27
19114;BME280;9689;51.052;13.772;2023-07-02T14:11:02;99554.34;;;23.71;38.21
19114;BME280;9689;51.052;13.772;2023-07-02T14:16:05;99560.22;;;23.54;37.37
19114;BME280;9689;51.052;13.772;2023-07-02T14:21:06;99555.69;;;23.45;38.15
19114;BME280;9689;51.052;13.772;2023-07-02T14:26:07;99560.59;;;23.39;39.29
19114;BME280;9689;51.052;13.772;2023-07-02T14:31:09;99573.28;;;23.15;38.96
19114;BME280;9689;51.052;13.772;2023-07-02T14:36:09;99572.25;;;23.06;38.50
19114;BME280;9689;51.052;13.772;2023-07-02T14:41:10;99568.94;;;23.77;37.02
19114;BME280;9689;51.052;13.772;2023-07-02T14:46:13;99569.53;;;24.20;36.73
19114;BME280;9689;51.052;13.772;2023-07-02T14:51:13;99570.88;;;24.05;37.77
19114;BME280;9689;51.052;13.772;2023-07-02T14:56:14;99569.03;;;23.65;37.35
19114;BME280;9689;51.052;13.772;2023-07-02T15:01:16;99574.78;;;23.71;37.84
19114;BME280;9689;51.052;13.772;2023-07-02T15:06:18;99574.19;;;23.25;37.27
19114;BME280;9689;51.052;13.772;2023-07-02T15:11:18;99588.44;;;23.03;38.06
19114;BME280;9689;51.052;13.772;2023-07-02T15:16:20;99572.16;;;22.97;38.80
19114;BME280;9689;51.052;13.772;2023-07-02T15:21:21;99590.50;;;23.74;37.45
19114;BME280;9689;51.052;13.772;2023-07-02T15:26:23;99593.56;;;24.40;36.32
19114;BME280;9689;51.052;13.772;2023-07-02T15:31:26;99589.69;;;24.13;37.23
19114;BME280;9689;51.052;13.772;2023-07-02T15:36:27;99595.03;;;24.23;37.31
19114;BME280;9689;51.052;13.772;2023-07-02T15:41:29;99603.66;;;24.36;36.45
19114;BME280;9689;51.052;13.772;2023-07-02T15:46:31;99597.19;;;24.79;35.09
19114;BME280;9689;51.052;13.772;2023-07-02T15:51:32;99587.59;;;24.17;35.44
19114;BME280;9689;51.052;13.772;2023-07-02T15:56:36;99602.13;;;23.73;36.34
19114;BME280;9689;51.052;13.772;2023-07-02T16:01:38;99597.13;;;24.19;35.98
19114;BME280;9689;51.052;13.772;2023-07-02T16:06:39;99610.75;;;24.26;35.16
19114;BME280;9689;51.052;13.772;2023-07-02T16:11:41;99596.72;;;23.63;37.62
19114;BME280;9689;51.052;13.772;2023-07-02T16:16:50;99598.19;;;25.07;33.71
19114;BME280;9689;51.052;13.772;2023-07-02T16:21:56;99609.13;;;24.35;35.64
19114;BME280;9689;51.052;13.772;2023-07-02T16:27:00;99598.16;;;24.78;35.24
19114;BME280;9689;51.052;13.772;2023-07-02T16:32:03;99604.47;;;25.74;32.50
19114;BME280;9689;51.052;13.772;2023-07-02T16:37:05;99617.00;;;24.46;35.20
19114;BME280;9689;51.052;13.772;2023-07-02T16:42:06;99613.72;;;24.92;35.04
19114;BME280;9689;51.052;13.772;2023-07-02T16:47:09;99622.56;;;25.80;33.06
19114;BME280;9689;51.052;13.772;2023-07-02T16:52:10;99611.91;;;26.72;31.67
19114;BME280;9689;51.052;13.772;2023-07-02T16:57:11;99630.91;;;25.38;33.88
19114;BME280;9689;51.052;13.772;2023-07-02T17:02:13;99624.09;;;26.57;32.05
19114;BME280;9689;51.052;13.772;2023-07-02T17:07:16;99630.28;;;27.02;30.89
19114;BME280;9689;51.052;13.772;2023-07-02T17:12:23;99630.00;;;27.06;30.21
19114;BME280;9689;51.052;13.772;2023-07-02T17:17:27;99630.16;;;27.04;30.72
19114;BME280;9689;51.052;13.772;2023-07-02T17:22:30;99636.47;;;25.64;32.98
19114;BME280;9689;51.052;13.772;2023-07-02T17:27:31;99639.47;;;25.03;34.36
19114;BME280;9689;51.052;13.772;2023-07-02T17:32:33;99639.38;;;24.84;33.98
19114;BME280;9689;51.052;13.772;2023-07-02T17:37:34;99640.44;;;25.12;34.04
19114;BME280;9689;51.052;13.772;2023-07-02T17:42:35;99649.69;;;25.65;33.27
19114;BME280;9689;51.052;13.772;2023-07-02T17:47:37;99633.78;;;25.93;32.94
19114;BME280;9689;51.052;13.772;2023-07-02T17:52:38;99631.31;;;25.43;34.28
19114;BME280;9689;51.052;13.772;2023-07-02T17:57:38;99638.59;;;24.43;35.73
19114;BME280;9689;51.052;13.772;2023-07-02T18:02:41;99639.59;;;23.69;37.14
19114;BME280;9689;51.052;13.772;2023-07-02T18:07:42;99651.41;;;23.24;37.54
19114;BME280;9689;51.052;13.772;2023-07-02T18:12:42;99647.22;;;23.10;38.69
19114;BME280;9689;51.052;13.772;2023-07-02T18:17:44;99645.97;;;22.93;38.17
19114;BME280;9689;51.052;13.772;2023-07-02T18:22:45;99655.53;;;22.73;39.53
19114;BME280;9689;51.052;13.772;2023-07-02T18:28:00;99654.97;;;22.47;39.93
19114;BME280;9689;51.052;13.772;2023-07-02T18:33:04;99658.59;;;22.35;40.01
19114;BME280;9689;51.052;13.772;2023-07-02T18:38:05;99658.81;;;22.32;39.96
19114;BME280;9689;51.052;13.772;2023-07-02T18:43:06;99666.53;;;22.24;40.49
19114;BME280;9689;51.052;13.772;2023-07-02T18:48:08;99674.81;;;21.97;41.34
19114;BME280;9689;51.052;13.772;2023-07-02T18:53:09;99677.84;;;21.92;41.14
19114;BME280;9689;51.052;13.772;2023-07-02T18:58:09;99674.22;;;21.82;41.78
19114;BME280;9689;51.052;13.772;2023-07-02T19:03:11;99678.13;;;21.65;41.93
19114;BME280;9689;51.052;13.772;2023-07-02T19:08:12;99673.47;;;21.45;42.77
19114;BME280;9689;51.052;13.772;2023-07-02T19:13:14;99683.72;;;21.38;43.03
19114;BME280;9689;51.052;13.772;2023-07-02T19:18:16;99687.22;;;21.26;43.42
19114;BME280;9689;51.052;13.772;2023-07-02T19:23:17;99683.13;;;21.22;43.34
19114;BME280;9689;51.052;13.772;2023-07-02T19:28:18;99683.56;;;21.16;43.58
19114;BME280;9689;51.052;13.772;2023-07-02T19:33:20;99688.34;;;21.11;43.99
19114;BME280;9689;51.052;13.772;2023-07-02T19:38:21;99688.31;;;21.00;44.39
19114;BME280;9689;51.052;13.772;2023-07-02T19:43:22;99695.47;;;21.10;44.06
19114;BME280;9689;51.052;13.772;2023-07-02T19:48:25;99699.44;;;20.92;45.20
19114;BME280;9689;51.052;13.772;2023-07-02T19:53:26;99711.34;;;20.86;45.22
19114;BME280;9689;51.052;13.772;2023-07-02T19:58:28;99717.25;;;20.90;45.28
19114;BME280;9689;51.052;13.772;2023-07-02T20:03:30;99709.69;;;20.73;46.03
19114;BME280;9689;51.052;13.772;2023-07-02T20:08:32;99714.75;;;20.76;45.90
19114;BME280;9689;51.052;13.772;2023-07-02T20:13:33;99730.03;;;20.72;46.10
19114;BME280;9689;51.052;13.772;2023-07-02T20:18:36;99726.09;;;20.65;46.46
19114;BME280;9689;51.052;13.772;2023-07-02T20:23:37;99727.72;;;20.68;46.52
19114;BME280;9689;51.052;13.772;2023-07-02T20:28:38;99726.75;;;20.56;47.17
19114;BME280;9689;51.052;13.772;2023-07-02T20:33:40;99735.03;;;20.51;47.25
19114;BME280;9689;51.052;13.772;2023-07-02T20:38:40;99741.72;;;20.44;47.40
19114;BME280;9689;51.052;13.772;2023-07-02T20:43:42;99749.06;;;20.39;47.40
19114;BME280;9689;51.052;13.772;2023-07-02T20:48:44;99750.06;;;20.25;48.25
19114;BME280;9689;51.052;13.772;2023-07-02T20:53:45;99763.34;;;20.24;48.37
19114;BME280;9689;51.052;13.772;2023-07-02T20:58:46;99761.66;;;20.23;48.92
19114;BME280;9689;51.052;13.772;2023-07-02T21:03:49;99773.22;;;20.22;48.54
19114;BME280;9689;51.052;13.772;2023-07-02T21:08:52;99779.34;;;20.10;48.61
19114;BME280;9689;51.052;13.772;2023-07-02T21:13:54;99780.72;;;20.02;48.96
19114;BME280;9689;51.052;13.772;2023-07-02T21:18:56;99786.63;;;19.93;49.41
19114;BME280;9689;51.052;13.772;2023-07-02T21:23:58;99789.63;;;19.74;50.16
19114;BME280;9689;51.052;13.772;2023-07-02T21:28:59;99804.00;;;19.70;50.56
19114;BME280;9689;51.052;13.772;2023-07-02T21:34:01;99813.69;;;19.57;51.75
19114;BME280;9689;51.052;13.772;2023-07-02T21:39:02;99811.91;;;19.58;51.29
19114;BME280;9689;51.052;13.772;2023-07-02T21:44:03;99813.09;;;19.66;50.96
19114;BME280;9689;51.052;13.772;2023-07-02T21:49:06;99817.59;;;19.37;51.79
19114;BME280;9689;51.052;13.772;2023-07-02T21:54:06;99824.66;;;19.37;51.45
19114;BME280;9689;51.052;13.772;2023-07-02T21:59:07;99833.09;;;19.29;51.54
19114;BME280;9689;51.052;13.772;2023-07-02T22:04:11;99834.31;;;19.24;51.22
19114;BME280;9689;51.052;13.772;2023-07-02T22:09:12;99840.81;;;19.18;51.10
19114;BME280;9689;51.052;13.772;2023-07-02T22:14:12;99841.59;;;19.06;51.50
19114;BME280;9689;51.052;13.772;2023-07-02T22:19:14;99837.81;;;19.10;51.13
19114;BME280;9689;51.052;13.772;2023-07-02T22:24:15;99840.66;;;19.21;49.73
19114;BME280;9689;51.052;13.772;2023-07-02T22:29:15;99844.03;;;19.09;50.55
19114;BME280;9689;51.052;13.772;2023-07-02T22:34:17;99840.84;;;19.04;50.26
19114;BME280;9689;51.052;13.772;2023-07-02T22:39:18;99849.41;;;18.93;51.07
19114;BME280;9689;51.052;13.772;2023-07-02T22:44:19;99840.28;;;18.84;51.53
19114;BME280;9689;51.052;13.772;2023-07-02T22:49:21;99840.94;;;18.88;51.76
19114;BME280;9689;51.052;13.772;2023-07-02T22:54:23;99839.41;;;18.84;52.59
19114;BME280;9689;51.052;13.772;2023-07-02T22:59:24;99839.06;;;18.90;53.35
19114;BME280;9689;51.052;13.772;2023-07-02T23:04:26;99840.47;;;18.96;52.77
19114;BME280;9689;51.052;13.772;2023-07-02T23:09:27;99833.13;;;18.86;53.10
19114;BME280;9689;51.052;13.772;2023-07-02T23:14:28;99825.81;;;18.61;53.63
19114;BME280;9689;51.052;13.772;2023-07-02T23:19:30;99820.34;;;18.64;53.93
19114;BME280;9689;51.052;13.772;2023-07-02T23:24:32;99814.41;;;18.61;54.90
19114;BME280;9689;51.052;13.772;2023-07-02T23:29:33;99813.63;;;18.59;55.96
19114;BME280;9689;51.052;13.772;2023-07-02T23:34:35;99811.09;;;18.57;55.57
19114;BME280;9689;51.052;13.772;2023-07-02T23:39:38;99806.78;;;18.42;54.11
19114;BME280;9689;51.052;13.772;2023-07-02T23:44:39;99802.34;;;18.43;54.02
19114;BME280;9689;51.052;13.772;2023-07-02T23:49:41;99804.56;;;18.20;54.68
19114;BME280;9689;51.052;13.772;2023-07-02T23:54:42;99811.44;;;18.23;56.43
19114;BME280;9689;51.052;13.772;2023-07-02T23:59:43;99803.53;;;18.23;56.58
